Time;durP1;ratioP1;P1;durP2;ratioP2;P2;SDS_P1;SDS_P2;PMS_P1;PMS_P2;Temp;Humidity;BMP_temperature;BMP_pressure;BME280_temperature;BME280_humidity;BME280_pressure;Samples;Min_cycle;Max_cycle;Signal;HPM_P1;HPM_P2
2022/12/18 00:01:13;;;;;;;43.00;20.90;;;;;;;-9.06;71.79;99435.75;4993692;28;20077;-82
2022/12/18 00:03:38;;;;;;;46.28;19.85;;;;;;;-9.05;71.22;99434.09;4987920;28;20038;-82
2022/12/18 00:06:04;;;;;;;43.05;21.23;;;;;;;-9.25;71.67;99427.00;4992032;28;20382;-82
2022/12/18 00:08:29;;;;;;;41.60;20.88;;;;;;;-9.20;72.73;99430.25;4992798;28;20042;-82
2022/12/18 00:10:54;;;;;;;40.33;21.05;;;;;;;-9.07;71.35;99429.00;4990850;28;20125;-82
2022/12/18 00:13:21;;;;;;;31.80;18.95;;;;;;;-8.95;69.74;99433.75;4991540;28;20039;-81
2022/12/18 00:15:46;;;;;;;34.17;18.63;;;;;;;-8.90;69.17;99425.97;4990889;28;20073;-82
2022/12/18 00:18:12;;;;;;;34.45;19.13;;;;;;;-8.87;68.96;99430.13;4989245;28;20046;-82
2022/12/18 00:20:39;;;;;;;35.28;18.10;;;;;;;-8.85;67.72;99431.78;4991584;28;20046;-82
2022/12/18 00:23:06;;;;;;;39.65;20.67;;;;;;;-8.81;68.15;99435.06;4990348;28;20460;-82
2022/12/18 00:25:34;;;;;;;38.25;18.85;;;;;;;-8.85;68.04;99438.56;4992456;28;20037;-81
2022/12/18 00:28:00;;;;;;;37.88;19.75;;;;;;;-8.90;67.64;99434.44;4994201;28;20034;-81
2022/12/18 00:30:26;;;;;;;38.65;19.02;;;;;;;-9.00;68.06;99422.88;4992085;28;20065;-81
2022/12/18 00:32:52;;;;;;;35.50;15.68;;;;;;;-9.00;68.67;99430.50;4969896;28;20050;-81
2022/12/18 00:35:17;;;;;;;43.70;19.67;;;;;;;-8.97;68.26;99432.97;4978480;28;20580;-81
2022/12/18 00:37:43;;;;;;;44.05;22.90;;;;;;;-8.97;68.02;99438.03;4994212;28;20387;-81
2022/12/18 00:40:09;;;;;;;35.22;18.65;;;;;;;-9.07;67.85;99434.09;4994328;28;20437;-82
2022/12/18 00:42:56;;;;;;;31.35;17.65;;;;;;;-9.10;68.98;99431.66;4994526;28;20042;-81
2022/12/18 00:45:28;;;;;;;35.55;17.60;;;;;;;-9.02;69.57;99419.56;4986402;28;20030;-81
2022/12/18 00:47:54;;;;;;;32.33;17.38;;;;;;;-8.97;69.31;99427.88;4989441;28;20149;-81
2022/12/18 00:50:21;;;;;;;30.02;15.00;;;;;;;-8.99;69.15;99414.38;4989636;28;20040;-81
2022/12/18 00:52:47;;;;;;;35.75;19.48;;;;;;;-9.04;69.08;99420.50;4989101;28;20042;-82
2022/12/18 00:55:13;;;;;;;34.63;19.75;;;;;;;-8.99;68.06;99409.31;4992870;28;20073;-82
2022/12/18 00:57:39;;;;;;;37.25;19.60;;;;;;;-8.94;68.20;99412.50;4973566;28;20054;-82
2022/12/18 01:00:09;;;;;;;34.63;19.35;;;;;;;-9.04;68.57;99393.34;4993700;28;20038;-81
2022/12/18 01:02:35;;;;;;;37.10;18.27;;;;;;;-8.94;68.47;99417.59;4989875;28;20043;-82
2022/12/18 01:05:00;;;;;;;36.97;18.38;;;;;;;-8.99;68.36;99422.03;4992834;28;20502;-81
2022/12/18 01:07:26;;;;;;;34.70;18.67;;;;;;;-9.02;68.27;99434.81;4992633;28;20426;-82
2022/12/18 01:09:51;;;;;;;31.48;17.20;;;;;;;-8.97;68.19;99439.75;4992675;28;20056;-81
2022/12/18 01:12:17;;;;;;;30.65;17.27;;;;;;;-9.01;67.74;99446.63;4992370;28;20042;-82
2022/12/18 01:14:42;;;;;;;33.05;17.45;;;;;;;-9.06;68.05;99448.47;4994050;28;20034;-82
2022/12/18 01:17:08;;;;;;;47.13;22.30;;;;;;;-9.20;66.94;99459.03;4976433;28;20474;-82
2022/12/18 01:19:34;;;;;;;35.00;18.48;;;;;;;-9.23;67.36;99453.22;4991583;28;20038;-82
2022/12/18 01:21:59;;;;;;;27.98;16.75;;;;;;;-9.29;67.67;99451.69;4992000;28;20038;-81
2022/12/18 01:24:25;;;;;;;35.30;17.83;;;;;;;-9.21;67.51;99474.34;4975627;28;20125;-82
2022/12/18 01:26:51;;;;;;;35.60;17.73;;;;;;;-9.19;67.22;99464.94;4975544;28;20030;-81
2022/12/18 01:29:16;;;;;;;28.30;16.30;;;;;;;-9.27;67.10;99449.09;4993771;28;20038;-82
2022/12/18 01:31:42;;;;;;;29.10;16.77;;;;;;;-9.19;67.91;99470.03;4989910;28;20112;-82
2022/12/18 01:34:08;;;;;;;38.53;18.00;;;;;;;-9.19;68.51;99462.41;4993844;28;20121;-82
2022/12/18 01:36:38;;;;;;;32.22;17.92;;;;;;;-9.13;68.82;99477.47;4995656;28;20046;-81
2022/12/18 01:39:12;;;;;;;38.60;21.45;;;;;;;-9.16;68.26;99477.59;4975093;28;20058;-81
2022/12/18 01:44:54;;;;;;;33.97;17.85;;;;;;;-9.09;68.28;99478.25;4975456;28;20359;-81
2022/12/18 01:47:31;;;;;;;35.45;19.48;;;;;;;-9.10;68.38;99477.41;4993798;28;20073;-81
2022/12/18 01:50:01;;;;;;;36.92;18.05;;;;;;;-9.13;68.62;99474.94;4992569;28;20034;-82
2022/12/18 01:52:32;;;;;;;37.80;20.15;;;;;;;-9.15;68.74;99473.34;4993101;28;20504;-82
2022/12/18 01:55:00;;;;;;;34.60;19.52;;;;;;;-9.06;68.34;99478.97;4992794;28;20053;-82
2022/12/18 01:57:27;;;;;;;39.67;18.42;;;;;;;-9.14;68.36;99480.91;4992789;28;20042;-82
2022/12/18 02:00:01;;;;;;;37.40;19.52;;;;;;;-9.18;68.25;99485.22;4994607;28;20042;-81
2022/12/18 02:02:29;;;;;;;30.17;17.63;;;;;;;-9.22;68.48;99476.03;4993024;28;20037;-82
2022/12/18 02:04:54;;;;;;;35.25;17.40;;;;;;;-9.22;68.46;99483.66;4992305;28;20112;-82
2022/12/18 02:07:35;;;;;;;28.98;17.48;;;;;;;-9.22;68.10;99473.50;4996166;28;20094;-82
2022/12/18 02:10:26;;;;;;;38.08;18.92;;;;;;;-9.11;68.19;99483.38;4997436;28;20045;-82
2022/12/18 02:13:13;;;;;;;29.17;18.80;;;;;;;-9.11;68.37;99480.00;4992047;28;20180;-82
2022/12/18 02:15:53;;;;;;;37.53;20.10;;;;;;;-9.18;68.27;99487.78;4997598;28;20038;-81
2022/12/18 02:18:32;;;;;;;32.13;18.52;;;;;;;-9.17;68.52;99486.09;4994627;28;20088;-82
2022/12/18 02:21:28;;;;;;;38.17;20.40;;;;;;;-9.21;68.87;99487.88;4997021;28;20044;-81
2022/12/18 02:24:13;;;;;;;48.83;25.17;;;;;;;-9.26;68.67;99468.53;4974388;28;20122;-82
2022/12/18 02:26:55;;;;;;;38.42;22.63;;;;;;;-9.38;68.59;99464.63;4989968;28;20069;-82
2022/12/18 02:29:48;;;;;;;41.42;22.83;;;;;;;-9.28;68.75;99468.59;4998111;28;20037;-82
2022/12/18 02:32:39;;;;;;;40.05;20.33;;;;;;;-9.26;69.01;99473.63;4994623;28;20038;-81
2022/12/18 02:35:13;;;;;;;19.08;14.43;;;;;;;-9.60;68.88;99479.59;4996906;28;20109;-81
2022/12/18 02:37:41;;;;;;;33.38;19.75;;;;;;;-9.76;69.47;99480.88;4996365;28;20042;-81
2022/12/18 02:40:09;;;;;;;37.05;21.05;;;;;;;-9.62;69.22;99486.44;4992128;28;20034;-82
2022/12/18 02:42:34;;;;;;;41.15;21.98;;;;;;;-9.58;68.99;99498.19;4994406;28;20034;-81
2022/12/18 02:45:00;;;;;;;32.75;18.23;;;;;;;-9.66;68.79;99502.63;4994139;28;20037;-82
2022/12/18 02:47:33;;;;;;;42.53;22.25;;;;;;;-9.59;69.28;99513.47;4969785;28;21490;-82
2022/12/18 02:50:07;;;;;;;35.20;20.98;;;;;;;-9.57;69.15;99502.41;4993314;28;20037;-81
2022/12/18 02:53:00;;;;;;;30.13;18.67;;;;;;;-9.51;69.22;99509.03;4991108;28;20034;-81
2022/12/18 02:56:07;;;;;;;36.85;20.80;;;;;;;-9.79;68.96;99499.56;4968116;28;20181;-81
2022/12/18 02:58:59;;;;;;;32.05;17.67;;;;;;;-9.66;69.70;99517.03;4947160;28;20046;-81
2022/12/18 03:01:42;;;;;;;35.92;20.10;;;;;;;-9.65;69.52;99518.69;4992742;28;20041;-81
2022/12/18 03:04:21;;;;;;;33.20;18.33;;;;;;;-9.56;70.11;99511.69;4989717;28;20034;-82
2022/12/18 03:06:53;;;;;;;27.65;14.93;;;;;;;-9.52;71.07;99500.56;4993511;28;20093;-81
2022/12/18 03:09:32;;;;;;;34.20;17.42;;;;;;;-9.65;73.34;99498.38;4993243;28;20038;-81
2022/12/18 03:12:25;;;;;;;32.92;16.65;;;;;;;-9.49;73.35;99486.94;4992396;28;20042;-81
2022/12/18 03:15:08;;;;;;;34.15;18.15;;;;;;;-9.45;72.24;99480.91;4995371;28;20038;-81
2022/12/18 03:17:36;;;;;;;32.85;18.35;;;;;;;-9.58;71.55;99492.28;4995387;28;20033;-81
2022/12/18 03:20:14;;;;;;;30.98;16.45;;;;;;;-9.72;71.33;99483.28;4994306;28;20053;-81
2022/12/18 03:22:45;;;;;;;24.85;14.45;;;;;;;-9.64;71.29;99495.81;4993963;28;20066;-81
2022/12/18 03:25:14;;;;;;;31.40;15.77;;;;;;;-9.63;71.00;99487.31;4993278;28;20077;-82
2022/12/18 03:27:48;;;;;;;18.77;9.57;;;;;;;-9.60;70.33;99496.53;4995600;28;20038;-82
2022/12/18 03:30:16;;;;;;;22.75;12.60;;;;;;;-9.62;69.86;99494.06;4993308;28;20397;-82
2022/12/18 03:32:56;;;;;;;25.40;13.52;;;;;;;-9.59;70.08;99506.69;4995531;28;20644;-81
2022/12/18 03:35:39;;;;;;;21.80;12.85;;;;;;;-9.56;70.03;99504.06;4998244;28;20038;-82
2022/12/18 03:38:06;;;;;;;28.52;12.15;;;;;;;-9.51;70.20;99509.84;4993754;28;20085;-81
2022/12/18 03:41:05;;;;;;;24.88;13.60;;;;;;;-9.47;69.75;99508.09;4989809;28;20041;-81
2022/12/18 03:44:11;;;;;;;30.70;12.50;;;;;;;-9.43;69.53;99518.09;4993223;28;20061;-81
2022/12/18 03:46:52;;;;;;;25.90;11.77;;;;;;;-9.43;68.88;99525.72;4914591;28;20061;-81
2022/12/18 03:49:31;;;;;;;31.67;12.35;;;;;;;-9.48;69.10;99512.28;4988711;28;20463;-81
2022/12/18 03:52:10;;;;;;;22.20;13.48;;;;;;;-9.44;69.81;99520.69;4993328;28;20034;-81
2022/12/18 03:54:39;;;;;;;23.17;12.93;;;;;;;-9.36;70.23;99521.31;4988919;28;20046;-81
2022/12/18 03:57:18;;;;;;;25.77;11.93;;;;;;;-9.33;70.37;99528.03;4987335;28;20131;-81
2022/12/18 03:59:47;;;;;;;21.90;11.73;;;;;;;-9.33;70.80;99530.56;4986108;28;20050;-82
2022/12/18 04:02:17;;;;;;;19.85;11.43;;;;;;;-9.24;71.14;99527.78;4987927;28;20042;-81
2022/12/18 04:04:48;;;;;;;19.13;11.30;;;;;;;-9.20;72.05;99520.03;4985861;28;20046;-81
2022/12/18 04:07:15;;;;;;;25.95;14.00;;;;;;;-9.27;71.76;99530.41;4988612;28;20034;-81
2022/12/18 04:09:48;;;;;;;28.50;15.20;;;;;;;-9.29;71.46;99532.16;4989321;28;20042;-81
2022/12/18 04:12:13;;;;;;;27.20;16.35;;;;;;;-9.43;71.75;99522.34;4987187;28;20046;-81
2022/12/18 04:14:39;;;;;;;30.85;16.73;;;;;;;-9.39;72.50;99525.66;4989416;28;20069;-81
2022/12/18 04:17:04;;;;;;;21.77;11.82;;;;;;;-9.37;73.82;99518.81;4991854;28;20034;-81
2022/12/18 04:19:30;;;;;;;20.55;10.93;;;;;;;-9.31;74.82;99533.91;4985181;28;20537;-81
2022/12/18 04:21:55;;;;;;;18.95;11.65;;;;;;;-9.28;74.77;99529.59;4974897;28;20038;-81
2022/12/18 04:24:24;;;;;;;19.52;10.30;;;;;;;-9.39;75.08;99525.66;4993424;28;20045;-81
2022/12/18 04:26:49;;;;;;;18.63;11.80;;;;;;;-9.27;74.97;99530.41;4994551;28;20061;-81
2022/12/18 04:29:15;;;;;;;22.85;11.98;;;;;;;-9.12;76.16;99542.69;4973562;28;20026;-81
2022/12/18 04:31:40;;;;;;;16.02;9.57;;;;;;;-9.10;76.67;99543.50;4996378;28;20038;-81
2022/12/18 04:34:06;;;;;;;24.33;10.93;;;;;;;-9.08;78.68;99520.56;4994738;28;20089;-81
2022/12/18 04:36:31;;;;;;;31.73;13.07;;;;;;;-8.97;78.15;99531.28;4993415;28;20042;-81
2022/12/18 04:38:57;;;;;;;26.70;11.65;;;;;;;-8.81;79.72;99534.25;4988535;28;20054;-81
2022/12/18 04:41:22;;;;;;;14.40;10.07;;;;;;;-8.76;79.13;99527.28;4991087;28;20044;-81
2022/12/18 04:43:48;;;;;;;25.52;12.95;;;;;;;-8.66;78.59;99539.69;4989668;28;20026;-82
2022/12/18 04:46:13;;;;;;;28.00;14.55;;;;;;;-8.58;78.54;99536.94;4989170;28;20050;-82
2022/12/18 04:48:39;;;;;;;28.15;13.70;;;;;;;-8.49;79.02;99541.75;4981694;28;20038;-82
2022/12/18 04:51:05;;;;;;;27.92;15.07;;;;;;;-8.39;79.23;99530.44;4991830;28;20026;-81
2022/12/18 04:53:31;;;;;;;24.35;12.38;;;;;;;-8.25;79.01;99529.16;4990764;28;20391;-81
2022/12/18 04:56:09;;;;;;;16.92;10.35;;;;;;;-8.17;78.39;99529.72;4992116;28;20042;-81
2022/12/18 04:58:38;;;;;;;6.50;5.30;;;;;;;-8.21;77.94;99533.28;4991022;28;20070;-81
2022/12/18 05:01:05;;;;;;;18.77;9.50;;;;;;;-8.26;77.97;99527.50;4990559;28;20030;-81
2022/12/18 05:03:31;;;;;;;23.38;11.95;;;;;;;-8.11;78.04;99545.66;4974952;28;20281;-82
2022/12/18 05:05:56;;;;;;;21.02;11.45;;;;;;;-7.91;77.45;99537.41;4974717;28;20034;-82
2022/12/18 05:08:22;;;;;;;22.83;11.00;;;;;;;-7.88;77.46;99533.91;4994374;28;20042;-82
2022/12/18 05:10:47;;;;;;;25.25;10.75;;;;;;;-7.73;77.39;99527.50;4993485;28;20037;-82
2022/12/18 05:13:13;;;;;;;22.58;10.05;;;;;;;-7.79;77.82;99517.53;4991745;28;20425;-82
2022/12/18 05:15:39;;;;;;;22.65;11.07;;;;;;;-7.83;78.71;99522.69;4992774;28;20113;-83
2022/12/18 05:18:04;;;;;;;25.60;11.23;;;;;;;-7.65;79.20;99534.00;4977809;28;20114;-82
2022/12/18 05:20:30;;;;;;;15.63;8.38;;;;;;;-7.60;78.65;99538.94;4977177;28;20378;-82
2022/12/18 05:22:56;;;;;;;23.77;11.15;;;;;;;-7.55;78.90;99552.38;4987765;28;20429;-81
2022/12/18 05:25:22;;;;;;;20.60;9.20;;;;;;;-7.53;78.23;99540.41;4992652;28;20026;-82
2022/12/18 05:27:48;;;;;;;23.33;11.80;;;;;;;-7.44;78.03;99545.19;4992366;28;20498;-81
2022/12/18 05:30:15;;;;;;;29.13;11.73;;;;;;;-7.39;78.32;99552.69;4992668;28;20034;-82
2022/12/18 05:32:41;;;;;;;26.63;9.63;;;;;;;-7.41;78.33;99547.63;4990786;28;20030;-82
2022/12/18 05:35:09;;;;;;;22.98;10.73;;;;;;;-7.32;78.67;99549.03;4992481;28;20046;-82
2022/12/18 05:37:35;;;;;;;8.77;4.65;;;;;;;-7.35;78.49;99544.88;4991913;28;20398;-82
2022/12/18 05:40:03;;;;;;;26.48;11.57;;;;;;;-7.21;78.35;99543.56;4992149;28;20034;-81
2022/12/18 05:42:28;;;;;;;20.55;10.95;;;;;;;-7.16;78.79;99547.63;4992563;28;20569;-82
2022/12/18 05:44:53;;;;;;;10.10;7.78;;;;;;;-7.27;78.31;99532.69;4991962;28;20068;-82
2022/12/18 05:47:19;;;;;;;17.52;8.43;;;;;;;-7.01;78.46;99551.38;4992285;28;20034;-82
2022/12/18 05:49:45;;;;;;;18.30;8.82;;;;;;;-6.99;78.20;99556.41;4992157;28;20034;-82
2022/12/18 05:52:10;;;;;;;28.85;12.10;;;;;;;-6.98;77.90;99548.69;4992369;28;20113;-81
2022/12/18 05:54:36;;;;;;;24.92;9.63;;;;;;;-6.95;78.21;99553.72;4992667;28;20501;-82
2022/12/18 05:57:01;;;;;;;20.85;10.85;;;;;;;-7.06;78.58;99525.19;4991620;28;20113;-82
2022/12/18 05:59:27;;;;;;;16.98;7.75;;;;;;;-6.94;78.02;99550.25;4992301;28;20096;-82
2022/12/18 06:01:52;;;;;;;20.67;10.40;;;;;;;-6.94;78.59;99550.25;4990483;28;20640;-82
2022/12/18 06:04:18;;;;;;;21.55;9.85;;;;;;;-6.97;78.44;99545.25;4989505;28;20069;-82
2022/12/18 06:06:43;;;;;;;22.92;10.23;;;;;;;-7.07;78.68;99523.53;4991729;28;20034;-82
2022/12/18 06:09:09;;;;;;;21.77;10.40;;;;;;;-6.82;78.48;99554.94;4992479;28;20072;-82
2022/12/18 06:11:38;;;;;;;24.15;10.70;;;;;;;-6.86;78.42;99571.22;4976553;28;20038;-82
2022/12/18 06:14:06;;;;;;;27.95;11.45;;;;;;;-6.86;78.76;99568.66;4992825;28;20034;-81
2022/12/18 06:16:32;;;;;;;23.30;11.30;;;;;;;-6.85;78.76;99577.97;4996697;28;20096;-82
2022/12/18 06:19:01;;;;;;;21.88;10.57;;;;;;;-6.75;78.69;99583.59;4993162;28;20065;-82
2022/12/18 06:21:28;;;;;;;24.75;9.65;;;;;;;-6.77;79.03;99577.72;4983188;28;20387;-81
2022/12/18 06:23:53;;;;;;;20.08;9.45;;;;;;;-6.78;79.91;99571.81;4991582;28;20588;-81
2022/12/18 06:26:19;;;;;;;16.58;7.70;;;;;;;-6.71;79.86;99569.84;4996730;28;20118;-82
2022/12/18 06:28:45;;;;;;;20.98;10.82;;;;;;;-6.61;79.54;99571.16;4996987;28;20038;-82
2022/12/18 06:31:11;;;;;;;19.15;9.93;;;;;;;-6.57;79.51;99564.25;4991611;28;20110;-82
2022/12/18 06:33:38;;;;;;;15.93;8.38;;;;;;;-6.77;80.33;99547.94;4988495;28;20039;-82
2022/12/18 06:36:13;;;;;;;22.33;11.90;;;;;;;-6.69;80.30;99574.91;4984443;28;20034;-82
2022/12/18 06:38:42;;;;;;;21.25;8.98;;;;;;;-6.66;80.14;99570.50;4991570;28;20054;-82
2022/12/18 06:41:17;;;;;;;17.75;9.43;;;;;;;-6.63;79.54;99588.28;4992572;28;20159;-82
2022/12/18 06:43:43;;;;;;;26.15;11.15;;;;;;;-6.55;79.79;99588.81;4988678;28;20046;-82
2022/12/18 06:46:09;;;;;;;13.57;6.20;;;;;;;-6.54;78.78;99579.44;4991335;28;20489;-82
2022/12/18 06:48:35;;;;;;;16.20;8.02;;;;;;;-6.50;78.28;99575.88;4992627;28;20030;-82
2022/12/18 06:51:01;;;;;;;16.20;8.70;;;;;;;-6.44;78.06;99588.41;4991965;28;20071;-82
2022/12/18 06:53:27;;;;;;;18.38;9.68;;;;;;;-6.37;78.11;99592.41;4992090;28;20041;-82
2022/12/18 06:56:08;;;;;;;22.17;10.07;;;;;;;-6.40;77.92;99597.63;4993039;28;20050;-82
2022/12/18 06:58:33;;;;;;;;;;;;;;;-6.41;78.52;99590.88;4993994;28;20034;-82
2022/12/18 07:01:05;;;;;;;3.03;1.73;;;;;;;-6.50;77.91;99601.41;4994054;28;19914;-81
2022/12/18 07:03:30;;;;;;;16.60;8.75;;;;;;;-6.43;78.06;99597.75;4990168;28;20034;-83
2022/12/18 07:05:56;;;;;;;22.98;10.05;;;;;;;-6.50;78.67;99597.13;4992164;28;20044;-83
2022/12/18 07:08:21;;;;;;;28.92;11.55;;;;;;;-6.35;78.24;99595.75;4995741;28;20038;-83
2022/12/18 07:10:48;;;;;;;18.30;9.32;;;;;;;-6.32;78.04;99584.59;4993612;28;20046;-82
2022/12/18 07:13:15;;;;;;;19.60;7.90;;;;;;;-6.29;78.22;99590.41;4975209;28;20041;-82
2022/12/18 07:15:41;;;;;;;17.27;7.55;;;;;;;-6.24;78.31;99583.41;4992928;28;20034;-83
2022/12/18 07:18:06;;;;;;;19.23;8.93;;;;;;;-6.25;78.32;99571.50;4995861;28;20042;-82
2022/12/18 07:20:33;;;;;;;26.75;10.82;;;;;;;-6.11;78.88;99577.84;4992325;28;20073;-82
2022/12/18 07:23:01;;;;;;;21.08;8.95;;;;;;;-6.06;78.46;99579.31;4990032;28;20059;-82
2022/12/18 07:25:26;;;;;;;23.75;9.52;;;;;;;-6.10;79.08;99580.34;4992921;28;20065;-82
2022/12/18 07:27:52;;;;;;;26.73;9.57;;;;;;;-6.12;79.51;99574.44;4992293;28;20311;-82
2022/12/18 07:30:17;;;;;;;23.85;9.73;;;;;;;-6.00;79.64;99579.09;4996784;28;20046;-83
2022/12/18 07:32:43;;;;;;;23.35;9.38;;;;;;;-5.96;79.71;99584.91;4991362;28;20068;-82
2022/12/18 07:35:08;;;;;;;17.30;9.18;;;;;;;-5.81;79.40;99586.00;4989745;28;20049;-82
2022/12/18 07:37:34;;;;;;;20.73;9.27;;;;;;;-5.76;79.68;99589.19;4991961;28;20192;-83
2022/12/18 07:39:59;;;;;;;22.88;9.43;;;;;;;-5.74;79.17;99588.25;4989967;28;20038;-82
2022/12/18 07:42:30;;;;;;;24.20;9.55;;;;;;;-5.74;79.52;99590.81;4989140;28;20558;-83
2022/12/18 07:44:57;;;;;;;21.05;9.13;;;;;;;-5.71;79.59;99605.19;4990443;28;20042;-83
2022/12/18 07:47:23;;;;;;;18.48;7.57;;;;;;;-5.71;79.64;99606.00;4990422;28;20061;-82
2022/12/18 07:49:48;;;;;;;16.48;7.80;;;;;;;-5.75;79.59;99590.88;4987662;28;20031;-83
2022/12/18 07:52:14;;;;;;;22.80;7.93;;;;;;;-5.49;79.38;99615.41;4990717;28;20042;-83
2022/12/18 07:54:40;;;;;;;16.40;8.23;;;;;;;-5.48;79.20;99615.31;4991732;28;20069;-83
2022/12/18 07:57:06;;;;;;;17.55;8.00;;;;;;;-5.30;78.96;99621.41;4990832;28;20477;-83
2022/12/18 07:59:32;;;;;;;25.65;9.90;;;;;;;-5.26;78.97;99617.84;4991474;28;20033;-83
2022/12/18 08:02:00;;;;;;;22.60;9.93;;;;;;;-5.27;78.82;99625.59;4992755;28;20038;-85
2022/12/18 08:04:26;;;;;;;20.08;9.60;;;;;;;-5.17;78.59;99621.75;4994439;28;20104;-83
2022/12/18 08:06:52;;;;;;;19.60;8.57;;;;;;;-5.13;78.51;99623.28;4959190;28;20151;-83
2022/12/18 08:09:18;;;;;;;23.13;9.07;;;;;;;-5.00;78.39;99631.28;4993063;28;20159;-83
2022/12/18 08:11:44;;;;;;;24.73;10.10;;;;;;;-4.86;78.04;99614.47;4994362;28;20038;-84
2022/12/18 08:14:09;;;;;;;23.40;9.73;;;;;;;-4.99;78.37;99607.34;4994797;28;20042;-83
2022/12/18 08:16:36;;;;;;;25.85;10.43;;;;;;;-4.85;78.45;99616.13;4983774;28;20054;-83
2022/12/18 08:19:02;;;;;;;27.83;10.90;;;;;;;-4.87;78.77;99623.00;4995202;28;20038;-83
2022/12/18 08:21:31;;;;;;;22.95;9.00;;;;;;;-4.79;78.17;99619.31;4994605;28;20034;-83
2022/12/18 08:24:00;;;;;;;25.92;9.52;;;;;;;-4.72;78.25;99624.09;4994310;28;20030;-83
2022/12/18 08:26:29;;;;;;;20.20;9.52;;;;;;;-4.64;77.86;99632.25;4990499;28;20037;-83
2022/12/18 08:28:57;;;;;;;18.90;8.90;;;;;;;-4.55;77.74;99627.66;4992382;28;20378;-83
2022/12/18 08:31:24;;;;;;;21.30;8.70;;;;;;;-4.55;77.52;99618.25;4987487;28;20038;-83
2022/12/18 08:33:52;;;;;;;22.00;8.57;;;;;;;-4.47;77.73;99626.41;4992071;28;20038;-83
2022/12/18 08:36:18;;;;;;;23.17;10.07;;;;;;;-4.52;77.81;99622.38;4988521;28;20041;-83
2022/12/18 08:38:44;;;;;;;21.95;8.38;;;;;;;-4.47;77.77;99626.41;4991292;28;20046;-83
2022/12/18 08:41:13;;;;;;;25.30;10.10;;;;;;;-4.43;77.70;99622.81;4990376;28;20037;-83
2022/12/18 08:46:27;;;;;;;20.48;8.45;;;;;;;-4.27;77.66;99628.06;4989900;28;20113;-83
2022/12/18 08:48:55;;;;;;;23.15;10.45;;;;;;;-4.11;77.08;99634.19;4992934;28;20064;-83
2022/12/18 08:51:21;;;;;;;21.48;9.80;;;;;;;-3.98;76.86;99629.31;4989259;28;20505;-83
2022/12/18 08:53:47;;;;;;;23.80;9.52;;;;;;;-3.96;77.10;99624.13;4978836;28;20030;-84
2022/12/18 08:56:14;;;;;;;20.75;9.77;;;;;;;-3.88;76.43;99619.47;4995511;28;20161;-83
2022/12/18 08:58:40;;;;;;;20.42;9.85;;;;;;;-3.85;76.66;99611.63;4991666;28;20030;-83
2022/12/18 09:01:09;;;;;;;27.67;10.63;;;;;;;-3.87;76.87;99621.13;4993619;28;20551;-83
2022/12/18 09:03:36;;;;;;;22.75;8.93;;;;;;;-3.77;76.35;99619.81;4951978;28;20145;-83
2022/12/18 09:06:02;;;;;;;22.83;8.75;;;;;;;-3.67;75.82;99612.50;4991389;28;20061;-83
2022/12/18 09:08:28;;;;;;;21.63;9.23;;;;;;;-3.60;75.05;99614.72;4996133;28;20089;-83
2022/12/18 09:10:55;;;;;;;24.77;9.77;;;;;;;-3.67;75.65;99603.06;4993918;28;20038;-83
2022/12/18 09:13:21;;;;;;;22.80;10.10;;;;;;;-3.50;75.84;99615.09;4957188;28;20034;-83
2022/12/18 09:15:54;;;;;;;24.05;10.77;;;;;;;-3.54;75.71;99614.44;4995954;28;20046;-84
2022/12/18 09:18:22;;;;;;;22.60;9.50;;;;;;;-3.51;75.45;99608.31;4995213;28;20034;-83
2022/12/18 09:20:48;;;;;;;22.58;11.20;;;;;;;-3.53;75.11;99608.38;5003843;28;20410;-88
2022/12/18 09:23:14;;;;;;;25.88;11.18;;;;;;;-3.39;75.27;99617.16;4991636;28;20045;-89
2022/12/18 09:25:40;;;;;;;28.85;12.35;;;;;;;-3.22;75.25;99621.47;4988896;28;20177;-88
2022/12/18 09:28:14;;;;;;;25.95;10.35;;;;;;;-3.17;74.63;99612.63;4999005;28;20044;-88
2022/12/18 09:30:43;;;;;;;19.80;9.70;;;;;;;-3.17;74.69;99610.06;5004240;28;20045;-89
2022/12/18 09:33:08;;;;;;;25.08;11.38;;;;;;;-3.13;74.66;99603.03;4975337;28;20121;-89
2022/12/18 09:35:43;;;;;;;20.60;10.27;;;;;;;-3.14;74.45;99602.19;4985449;28;20549;-89
2022/12/18 09:38:15;;;;;;;23.42;9.75;;;;;;;-3.14;74.87;99591.09;4981594;28;20498;-89
2022/12/18 09:40:56;;;;;;;24.45;10.38;;;;;;;-3.02;74.96;99585.34;4990899;28;20026;-88
2022/12/18 09:43:36;;;;;;;25.25;10.23;;;;;;;-2.95;74.93;99581.56;4957040;28;20153;-89
2022/12/18 09:46:10;;;;;;;21.17;8.80;;;;;;;-3.02;74.72;99581.03;4991085;28;20034;-89
2022/12/18 09:48:42;;;;;;;21.77;8.57;;;;;;;-2.98;74.48;99582.56;4977809;28;20034;-89
2022/12/18 09:51:28;;;;;;;15.18;6.85;;;;;;;-3.02;74.33;99580.22;4986486;28;20041;-83
2022/12/18 09:54:33;;;;;;;24.00;10.32;;;;;;;-3.03;74.94;99589.66;4986807;28;20030;-83
2022/12/18 09:56:59;;;;;;;17.65;8.07;;;;;;;-3.02;74.88;99581.03;4989712;28;20038;-83
2022/12/18 09:59:34;;;;;;;19.70;8.68;;;;;;;-3.08;74.79;99581.34;4998783;28;20051;-83
2022/12/18 10:01:59;;;;;;;24.38;10.15;;;;;;;-2.87;74.61;99594.03;4994449;28;20034;-83
2022/12/18 10:04:31;;;;;;;24.83;9.50;;;;;;;-2.88;74.35;99582.91;4993637;28;20109;-83
2022/12/18 10:07:25;;;;;;;21.10;8.77;;;;;;;-2.70;73.98;99581.13;4994953;28;20077;-83
2022/12/18 10:10:23;;;;;;;16.02;6.00;;;;;;;-2.56;74.04;99578.69;4985837;28;20049;-84
2022/12/18 10:13:00;;;;;;;19.02;7.70;;;;;;;-2.57;74.39;99571.88;4992453;28;20034;-83
2022/12/18 10:15:44;;;;;;;12.75;6.55;;;;;;;-2.52;73.89;99572.47;4993980;28;20410;-83
2022/12/18 10:18:51;;;;;;;8.25;4.40;;;;;;;-2.60;73.87;99566.06;4994577;28;20093;-83
2022/12/18 10:21:26;;;;;;;25.38;10.43;;;;;;;-2.56;73.95;99553.00;4960995;28;20042;-83
2022/12/18 10:24:14;;;;;;;21.05;8.98;;;;;;;-2.68;74.01;99558.78;5000217;28;20034;-83
2022/12/18 10:26:41;;;;;;;21.52;8.30;;;;;;;-2.70;74.00;99558.00;4997565;28;20042;-83
2022/12/18 10:29:13;;;;;;;23.35;9.80;;;;;;;-2.62;74.14;99567.91;4995329;28;20364;-84
2022/12/18 10:31:39;;;;;;;15.05;7.32;;;;;;;-2.76;73.50;99555.75;4971437;28;20042;-84
2022/12/18 10:34:10;;;;;;;23.77;8.82;;;;;;;-2.75;74.13;99557.44;4997975;28;20084;-83
2022/12/18 10:36:37;;;;;;;24.05;10.65;;;;;;;-2.78;74.07;99534.47;4995344;28;20033;-83
2022/12/18 10:39:26;;;;;;;24.85;9.43;;;;;;;-2.54;73.61;99550.34;4997676;28;20053;-84
2022/12/18 10:42:04;;;;;;;26.77;10.07;;;;;;;-2.49;73.74;99558.63;4983949;28;20066;-84
2022/12/18 10:44:30;;;;;;;20.48;10.30;;;;;;;-2.22;74.13;99564.00;4999440;28;20109;-84
2022/12/18 10:47:06;;;;;;;26.15;11.00;;;;;;;-2.08;73.42;99576.97;4999555;28;20034;-84
2022/12/18 10:49:35;;;;;;;19.70;8.57;;;;;;;-1.97;73.22;99577.22;4994435;28;20069;-83
2022/12/18 10:52:18;;;;;;;19.85;9.07;;;;;;;-1.89;72.98;99572.47;4993245;28;20039;-84
2022/12/18 10:54:53;;;;;;;26.67;11.35;;;;;;;-1.84;72.58;99566.25;4995706;28;20548;-90
2022/12/18 10:57:38;;;;;;;18.00;7.65;;;;;;;-1.88;71.55;99548.41;4974577;28;20101;-90
2022/12/18 11:00:30;;;;;;;28.15;10.10;;;;;;;-1.61;71.36;99578.66;4989427;28;20488;-90
2022/12/18 11:02:57;;;;;;;23.20;7.90;;;;;;;-1.73;71.89;99564.72;4972559;28;20039;-90
2022/12/18 11:05:33;;;;;;;19.95;8.30;;;;;;;-1.68;71.53;99577.31;5005076;28;20033;-91
2022/12/18 11:08:00;;;;;;;23.15;9.32;;;;;;;-1.66;71.55;99572.94;5000408;28;20022;-88
2022/12/18 11:10:36;;;;;;;23.92;8.60;;;;;;;-1.66;72.20;99554.94;4995256;28;20031;-89
2022/12/18 11:13:24;;;;;;;13.18;6.50;;;;;;;-1.51;71.41;99535.19;4992445;28;20072;-89
2022/12/18 11:15:51;;;;;;;22.00;9.20;;;;;;;-1.40;71.18;99545.72;4995483;28;20033;-89
2022/12/18 11:18:29;;;;;;;15.88;8.10;;;;;;;-1.67;71.40;99537.84;4999275;28;20043;-88
2022/12/18 11:21:05;;;;;;;20.75;9.85;;;;;;;-1.56;70.62;99525.19;5003928;28;20109;-88
2022/12/18 11:23:31;;;;;;;27.98;11.48;;;;;;;-1.44;70.70;99537.34;4988511;28;20061;-89
2022/12/18 11:26:01;;;;;;;18.52;8.77;;;;;;;-1.46;70.27;99538.34;4995828;28;20093;-90
2022/12/18 11:29:08;;;;;;;21.15;8.27;;;;;;;-1.33;70.58;99541.03;4976876;28;20027;-90
2022/12/18 11:31:34;;;;;;;20.42;8.80;;;;;;;-1.45;70.45;99525.38;4991103;28;20039;-90
2022/12/18 11:34:27;;;;;;;19.92;9.02;;;;;;;-1.45;70.59;99533.09;4992227;28;20060;-90
2022/12/18 11:36:54;;;;;;;23.23;9.52;;;;;;;-1.36;70.74;99537.72;4974713;28;20044;-91
2022/12/18 11:39:41;;;;;;;18.60;6.97;;;;;;;-1.16;70.51;99533.16;4994123;28;20061;-90
2022/12/18 11:42:19;;;;;;;21.65;9.65;;;;;;;-1.16;70.06;99517.69;4993070;28;20030;-91
2022/12/18 11:44:52;;;;;;;24.67;8.70;;;;;;;-0.99;69.63;99519.28;4973780;28;20483;-91